sensor_id;sensor_type;location;lat;lon;timestamp;pressure;altitude;pressure_sealevel;temperature;humidity
76201;BME280;64981;52.930;9.266;2023-11-19T00:01:57;100551.66;;;5.68;89.57
76201;BME280;64981;52.930;9.266;2023-11-19T00:04:22;100533.06;;;5.81;89.01
76201;BME280;64981;52.930;9.266;2023-11-19T00:06:48;100533.31;;;5.78;89.16
76201;BME280;64981;52.930;9.266;2023-11-19T00:09:13;100524.22;;;5.63;89.78
76201;BME280;64981;52.930;9.266;2023-11-19T00:11:42;100537.63;;;5.98;88.29
76201;BME280;64981;52.930;9.266;2023-11-19T00:14:07;100533.75;;;6.02;88.05
76201;BME280;64981;52.930;9.266;2023-11-19T00:16:34;100536.91;;;5.86;89.23
76201;BME280;64981;52.930;9.266;2023-11-19T00:19:00;100535.28;;;5.85;89.21
76201;BME280;64981;52.930;9.266;2023-11-19T00:21:25;100521.91;;;5.88;89.12
76201;BME280;64981;52.930;9.266;2023-11-19T00:23:54;100523.97;;;6.04;88.66
76201;BME280;64981;52.930;9.266;2023-11-19T00:26:19;100505.47;;;6.15;87.16
76201;BME280;64981;52.930;9.266;2023-11-19T00:28:45;100489.31;;;6.29;86.71
76201;BME280;64981;52.930;9.266;2023-11-19T00:31:12;100478.28;;;5.97;87.98
76201;BME280;64981;52.930;9.266;2023-11-19T00:33:38;100474.53;;;6.19;87.29
76201;BME280;64981;52.930;9.266;2023-11-19T00:36:05;100476.06;;;6.02;88.55
76201;BME280;64981;52.930;9.266;2023-11-19T00:38:30;100480.91;;;5.97;88.64
76201;BME280;64981;52.930;9.266;2023-11-19T00:40:56;100474.69;;;6.17;87.57
76201;BME280;64981;52.930;9.266;2023-11-19T00:43:22;100464.88;;;6.19;87.62
76201;BME280;64981;52.930;9.266;2023-11-19T00:45:47;100456.75;;;5.93;89.05
76201;BME280;64981;52.930;9.266;2023-11-19T00:48:16;100467.69;;;5.98;89.26
76201;BME280;64981;52.930;9.266;2023-11-19T00:50:42;100459.13;;;5.87;89.74
76201;BME280;64981;52.930;9.266;2023-11-19T00:53:09;100464.22;;;6.08;89.18
76201;BME280;64981;52.930;9.266;2023-11-19T00:55:35;100440.91;;;6.04;89.28
76201;BME280;64981;52.930;9.266;2023-11-19T00:58:01;100446.56;;;6.00;88.95
76201;BME280;64981;52.930;9.266;2023-11-19T01:00:26;100429.69;;;6.12;88.92
76201;BME280;64981;52.930;9.266;2023-11-19T01:02:53;100432.59;;;6.19;88.54
76201;BME280;64981;52.930;9.266;2023-11-19T01:05:19;100435.81;;;6.49;87.55
76201;BME280;64981;52.930;9.266;2023-11-19T01:07:48;100421.69;;;6.23;88.64
76201;BME280;64981;52.930;9.266;2023-11-19T01:10:13;100411.28;;;6.31;88.57
76201;BME280;64981;52.930;9.266;2023-11-19T01:12:41;100409.88;;;6.37;88.39
76201;BME280;64981;52.930;9.266;2023-11-19T01:15:07;100407.84;;;6.31;88.70
76201;BME280;64981;52.930;9.266;2023-11-19T01:17:33;100402.00;;;6.46;88.63
76201;BME280;64981;52.930;9.266;2023-11-19T01:19:58;100398.22;;;6.22;89.20
76201;BME280;64981;52.930;9.266;2023-11-19T01:22:24;100388.91;;;6.37;88.88
76201;BME280;64981;52.930;9.266;2023-11-19T01:24:50;100386.03;;;6.30;90.32
76201;BME280;64981;52.930;9.266;2023-11-19T01:27:17;100382.03;;;6.36;89.84
76201;BME280;64981;52.930;9.266;2023-11-19T01:29:43;100382.88;;;6.27;90.30
76201;BME280;64981;52.930;9.266;2023-11-19T01:32:08;100384.78;;;6.34;91.05
76201;BME280;64981;52.930;9.266;2023-11-19T01:34:34;100376.34;;;6.40;90.88
76201;BME280;64981;52.930;9.266;2023-11-19T01:37:01;100362.72;;;6.27;91.11
76201;BME280;64981;52.930;9.266;2023-11-19T01:39:26;100365.41;;;6.45;90.09
76201;BME280;64981;52.930;9.266;2023-11-19T01:41:52;100362.78;;;6.45;90.80
76201;BME280;64981;52.930;9.266;2023-11-19T01:44:19;100360.13;;;6.54;90.37
76201;BME280;64981;52.930;9.266;2023-11-19T01:46:46;100367.13;;;6.64;89.96
76201;BME280;64981;52.930;9.266;2023-11-19T01:49:15;100368.09;;;6.63;90.42
76201;BME280;64981;52.930;9.266;2023-11-19T01:51:42;100351.22;;;6.65;90.01
76201;BME280;64981;52.930;9.266;2023-11-19T01:54:08;100340.88;;;6.64;90.29
76201;BME280;64981;52.930;9.266;2023-11-19T01:56:35;100354.25;;;6.70;91.12
76201;BME280;64981;52.930;9.266;2023-11-19T01:59:03;100348.59;;;6.65;91.48
76201;BME280;64981;52.930;9.266;2023-11-19T02:01:29;100344.84;;;6.68;91.86
76201;BME280;64981;52.930;9.266;2023-11-19T02:03:55;100344.75;;;6.59;92.76
76201;BME280;64981;52.930;9.266;2023-11-19T02:06:21;100332.13;;;6.73;91.79
76201;BME280;64981;52.930;9.266;2023-11-19T02:08:47;100328.59;;;6.64;92.89
76201;BME280;64981;52.930;9.266;2023-11-19T02:11:12;100333.69;;;6.66;92.92
76201;BME280;64981;52.930;9.266;2023-11-19T02:13:39;100325.34;;;6.80;91.65
76201;BME280;64981;52.930;9.266;2023-11-19T02:16:07;100320.50;;;6.75;91.94
76201;BME280;64981;52.930;9.266;2023-11-19T02:18:34;100314.94;;;6.88;91.85
76201;BME280;64981;52.930;9.266;2023-11-19T02:21:00;100300.47;;;6.74;92.27
76201;BME280;64981;52.930;9.266;2023-11-19T02:23:28;100281.41;;;6.82;92.42
76201;BME280;64981;52.930;9.266;2023-11-19T02:26:05;100282.06;;;6.84;92.75
76201;BME280;64981;52.930;9.266;2023-11-19T02:28:35;100273.44;;;7.09;90.77
76201;BME280;64981;52.930;9.266;2023-11-19T02:31:01;100270.66;;;6.93;91.72
76201;BME280;64981;52.930;9.266;2023-11-19T02:33:27;100276.16;;;6.99;92.68
76201;BME280;64981;52.930;9.266;2023-11-19T02:35:52;100276.53;;;7.04;92.09
76201;BME280;64981;52.930;9.266;2023-11-19T02:38:18;100274.94;;;6.94;93.98
76201;BME280;64981;52.930;9.266;2023-11-19T02:40:43;100263.31;;;6.96;93.25
76201;BME280;64981;52.930;9.266;2023-11-19T02:43:09;100261.81;;;6.94;94.54
76201;BME280;64981;52.930;9.266;2023-11-19T02:45:35;100256.25;;;7.15;92.54
76201;BME280;64981;52.930;9.266;2023-11-19T02:48:01;100250.16;;;7.32;91.61
76201;BME280;64981;52.930;9.266;2023-11-19T02:50:27;100241.94;;;7.27;92.17
76201;BME280;64981;52.930;9.266;2023-11-19T02:52:54;100240.56;;;7.23;92.67
76201;BME280;64981;52.930;9.266;2023-11-19T02:55:22;100249.13;;;7.25;93.35
76201;BME280;64981;52.930;9.266;2023-11-19T02:57:49;100246.59;;;7.41;92.60
76201;BME280;64981;52.930;9.266;2023-11-19T03:00:16;100236.97;;;7.49;91.84
76201;BME280;64981;52.930;9.266;2023-11-19T03:02:43;100234.19;;;7.51;91.67
76201;BME280;64981;52.930;9.266;2023-11-19T03:05:13;100224.34;;;7.53;92.29
76201;BME280;64981;52.930;9.266;2023-11-19T03:07:42;100214.91;;;7.68;91.41
76201;BME280;64981;52.930;9.266;2023-11-19T03:10:10;100211.47;;;7.68;91.79
76201;BME280;64981;52.930;9.266;2023-11-19T03:12:39;100225.16;;;7.79;91.85
76201;BME280;64981;52.930;9.266;2023-11-19T03:15:05;100218.25;;;7.78;92.20
76201;BME280;64981;52.930;9.266;2023-11-19T03:17:31;100209.41;;;7.87;92.10
76201;BME280;64981;52.930;9.266;2023-11-19T03:19:56;100207.81;;;7.94;92.06
76201;BME280;64981;52.930;9.266;2023-11-19T03:22:22;100203.00;;;7.90;93.33
76201;BME280;64981;52.930;9.266;2023-11-19T03:24:50;100200.25;;;7.91;93.78
76201;BME280;64981;52.930;9.266;2023-11-19T03:27:16;100198.84;;;8.13;92.52
76201;BME280;64981;52.930;9.266;2023-11-19T03:29:42;100203.63;;;8.17;92.99
76201;BME280;64981;52.930;9.266;2023-11-19T03:32:07;100196.28;;;8.37;92.13
76201;BME280;64981;52.930;9.266;2023-11-19T03:34:33;100195.75;;;8.34;92.50
76201;BME280;64981;52.930;9.266;2023-11-19T03:36:58;100189.53;;;8.35;93.26
76201;BME280;64981;52.930;9.266;2023-11-19T03:39:24;100200.56;;;8.46;93.26
76201;BME280;64981;52.930;9.266;2023-11-19T03:41:50;100196.31;;;8.53;94.04
76201;BME280;64981;52.930;9.266;2023-11-19T03:44:16;100204.59;;;8.66;94.81
76201;BME280;64981;52.930;9.266;2023-11-19T03:46:42;100195.72;;;8.67;94.95
76201;BME280;64981;52.930;9.266;2023-11-19T03:49:07;100207.06;;;8.84;94.85
76201;BME280;64981;52.930;9.266;2023-11-19T03:51:33;100205.75;;;8.96;94.92
76201;BME280;64981;52.930;9.266;2023-11-19T03:54:00;100187.50;;;9.11;94.29
76201;BME280;64981;52.930;9.266;2023-11-19T03:56:26;100182.72;;;9.14;94.42
76201;BME280;64981;52.930;9.266;2023-11-19T03:58:52;100181.41;;;9.10;95.75
76201;BME280;64981;52.930;9.266;2023-11-19T04:01:18;100171.81;;;9.25;95.34
76201;BME280;64981;52.930;9.266;2023-11-19T04:03:44;100167.00;;;9.37;94.13
76201;BME280;64981;52.930;9.266;2023-11-19T04:06:09;100152.88;;;9.30;95.11
76201;BME280;64981;52.930;9.266;2023-11-19T04:08:35;100160.28;;;9.35;95.82
76201;BME280;64981;52.930;9.266;2023-11-19T04:11:03;100158.63;;;9.42;95.37
76201;BME280;64981;52.930;9.266;2023-11-19T04:13:29;100164.34;;;9.53;95.32
76201;BME280;64981;52.930;9.266;2023-11-19T04:15:54;100169.06;;;9.66;94.69
76201;BME280;64981;52.930;9.266;2023-11-19T04:18:20;100168.34;;;9.88;93.43
76201;BME280;64981;52.930;9.266;2023-11-19T04:20:45;100177.28;;;9.79;94.09
76201;BME280;64981;52.930;9.266;2023-11-19T04:23:11;100181.88;;;9.85;93.98
76201;BME280;64981;52.930;9.266;2023-11-19T04:25:37;100181.78;;;9.70;95.29
76201;BME280;64981;52.930;9.266;2023-11-19T04:28:02;100181.19;;;9.91;93.39
76201;BME280;64981;52.930;9.266;2023-11-19T04:30:28;100182.56;;;9.79;94.40
76201;BME280;64981;52.930;9.266;2023-11-19T04:32:54;100183.53;;;9.86;94.27
76201;BME280;64981;52.930;9.266;2023-11-19T04:35:19;100182.84;;;9.84;94.45
76201;BME280;64981;52.930;9.266;2023-11-19T04:37:45;100176.88;;;9.98;93.94
76201;BME280;64981;52.930;9.266;2023-11-19T04:40:11;100186.31;;;9.93;94.44
76201;BME280;64981;52.930;9.266;2023-11-19T04:42:38;100170.91;;;10.04;93.48
76201;BME280;64981;52.930;9.266;2023-11-19T04:45:06;100166.72;;;10.18;92.21
76201;BME280;64981;52.930;9.266;2023-11-19T04:47:32;100162.59;;;10.23;92.13
76201;BME280;64981;52.930;9.266;2023-11-19T04:49:58;100160.94;;;10.22;92.72
76201;BME280;64981;52.930;9.266;2023-11-19T04:52:24;100154.47;;;10.33;92.20
76201;BME280;64981;52.930;9.266;2023-11-19T04:54:49;100153.34;;;10.27;91.88
76201;BME280;64981;52.930;9.266;2023-11-19T04:57:15;100141.19;;;10.41;90.67
76201;BME280;64981;52.930;9.266;2023-11-19T04:59:41;100145.06;;;10.30;91.92
76201;BME280;64981;52.930;9.266;2023-11-19T05:02:08;100139.72;;;10.39;91.66
76201;BME280;64981;52.930;9.266;2023-11-19T05:04:33;100145.41;;;10.50;90.77
76201;BME280;64981;52.930;9.266;2023-11-19T05:06:59;100149.88;;;10.50;91.03
76201;BME280;64981;52.930;9.266;2023-11-19T05:09:24;100155.50;;;10.47;91.67
76201;BME280;64981;52.930;9.266;2023-11-19T05:11:50;100147.69;;;10.53;91.26
76201;BME280;64981;52.930;9.266;2023-11-19T05:14:16;100132.22;;;10.50;91.03
76201;BME280;64981;52.930;9.266;2023-11-19T05:16:42;100123.06;;;10.38;92.22
76201;BME280;64981;52.930;9.266;2023-11-19T05:19:08;100135.88;;;10.49;91.40
76201;BME280;64981;52.930;9.266;2023-11-19T05:21:34;100133.16;;;10.57;90.86
76201;BME280;64981;52.930;9.266;2023-11-19T05:24:02;100129.06;;;10.55;90.75
76201;BME280;64981;52.930;9.266;2023-11-19T05:26:30;100136.44;;;10.59;90.99
76201;BME280;64981;52.930;9.266;2023-11-19T05:28:56;100129.69;;;10.57;91.40
76201;BME280;64981;52.930;9.266;2023-11-19T05:31:22;100127.38;;;10.76;89.52
76201;BME280;64981;52.930;9.266;2023-11-19T05:33:48;100133.69;;;10.53;91.26
76201;BME280;64981;52.930;9.266;2023-11-19T05:36:14;100128.50;;;10.59;91.48
76201;BME280;64981;52.930;9.266;2023-11-19T05:38:40;100135.16;;;10.55;91.46
76201;BME280;64981;52.930;9.266;2023-11-19T05:41:05;100130.16;;;10.60;91.60
76201;BME280;64981;52.930;9.266;2023-11-19T05:43:32;100140.84;;;10.67;91.54
76201;BME280;64981;52.930;9.266;2023-11-19T05:45:58;100135.44;;;10.60;91.60
76201;BME280;64981;52.930;9.266;2023-11-19T05:48:25;100141.34;;;10.62;91.77
76201;BME280;64981;52.930;9.266;2023-11-19T05:50:51;100141.47;;;10.69;91.24
76201;BME280;64981;52.930;9.266;2023-11-19T05:53:16;100137.75;;;10.78;90.95
76201;BME280;64981;52.930;9.266;2023-11-19T05:55:42;100151.69;;;10.72;91.57
76201;BME280;64981;52.930;9.266;2023-11-19T05:58:23;100145.03;;;10.61;91.31
76201;BME280;64981;52.930;9.266;2023-11-19T06:00:49;100144.94;;;10.69;91.20
76201;BME280;64981;52.930;9.266;2023-11-19T06:03:16;100150.94;;;10.63;91.18
76201;BME280;64981;52.930;9.266;2023-11-19T06:05:44;100149.22;;;10.70;91.81
76201;BME280;64981;52.930;9.266;2023-11-19T06:08:10;100150.44;;;10.82;90.60
76201;BME280;64981;52.930;9.266;2023-11-19T06:10:39;100143.03;;;10.78;90.53
76201;BME280;64981;52.930;9.266;2023-11-19T06:13:04;100158.09;;;10.77;90.59
76201;BME280;64981;52.930;9.266;2023-11-19T06:15:30;100153.25;;;10.81;90.57
76201;BME280;64981;52.930;9.266;2023-11-19T06:17:58;100137.25;;;10.82;90.53
76201;BME280;64981;52.930;9.266;2023-11-19T06:20:26;100155.03;;;10.89;89.51
76201;BME280;64981;52.930;9.266;2023-11-19T06:22:54;100158.66;;;10.88;89.42
76201;BME280;64981;52.930;9.266;2023-11-19T06:25:20;100156.56;;;10.83;89.18
76201;BME280;64981;52.930;9.266;2023-11-19T06:27:45;100153.38;;;10.88;89.43
76201;BME280;64981;52.930;9.266;2023-11-19T06:30:11;100153.69;;;10.93;89.00
76201;BME280;64981;52.930;9.266;2023-11-19T06:32:37;100147.28;;;10.87;88.84
76201;BME280;64981;52.930;9.266;2023-11-19T06:35:03;100164.75;;;10.88;88.84
76201;BME280;64981;52.930;9.266;2023-11-19T06:37:30;100153.94;;;10.83;89.06
76201;BME280;64981;52.930;9.266;2023-11-19T06:39:55;100155.31;;;10.94;89.49
76201;BME280;64981;52.930;9.266;2023-11-19T06:42:21;100155.31;;;10.94;88.70
76201;BME280;64981;52.930;9.266;2023-11-19T06:44:47;100159.06;;;10.99;88.37
76201;BME280;64981;52.930;9.266;2023-11-19T06:47:12;100154.78;;;10.98;87.93
76201;BME280;64981;52.930;9.266;2023-11-19T06:49:38;100156.06;;;11.02;86.80
76201;BME280;64981;52.930;9.266;2023-11-19T06:52:04;100166.81;;;11.01;86.57
76201;BME280;64981;52.930;9.266;2023-11-19T06:54:30;100166.41;;;11.12;86.33
76201;BME280;64981;52.930;9.266;2023-11-19T06:56:56;100163.84;;;11.18;85.66
76201;BME280;64981;52.930;9.266;2023-11-19T06:59:23;100166.09;;;11.07;86.62
76201;BME280;64981;52.930;9.266;2023-11-19T07:01:49;100168.72;;;11.07;86.29
76201;BME280;64981;52.930;9.266;2023-11-19T07:04:14;100175.19;;;11.04;86.06
76201;BME280;64981;52.930;9.266;2023-11-19T07:06:40;100174.22;;;11.05;86.38
76201;BME280;64981;52.930;9.266;2023-11-19T07:09:07;100182.03;;;10.99;87.08
76201;BME280;64981;52.930;9.266;2023-11-19T07:11:37;100170.53;;;10.92;86.67
76201;BME280;64981;52.930;9.266;2023-11-19T07:14:04;100167.91;;;11.06;85.85
76201;BME280;64981;52.930;9.266;2023-11-19T07:16:32;100188.38;;;11.12;86.01
76201;BME280;64981;52.930;9.266;2023-11-19T07:19:00;100176.19;;;11.03;85.80
76201;BME280;64981;52.930;9.266;2023-11-19T07:21:26;100187.78;;;11.02;85.97
76201;BME280;64981;52.930;9.266;2023-11-19T07:23:54;100179.53;;;10.97;86.63
76201;BME280;64981;52.930;9.266;2023-11-19T07:26:20;100185.06;;;10.88;86.59
76201;BME280;64981;52.930;9.266;2023-11-19T07:28:45;100182.97;;;11.06;86.03
76201;BME280;64981;52.930;9.266;2023-11-19T07:31:12;100179.59;;;11.12;84.76
76201;BME280;64981;52.930;9.266;2023-11-19T07:33:39;100183.13;;;11.04;85.32
76201;BME280;64981;52.930;9.266;2023-11-19T07:36:05;100187.84;;;10.94;86.09
76201;BME280;64981;52.930;9.266;2023-11-19T07:38:31;100191.13;;;10.96;86.18
76201;BME280;64981;52.930;9.266;2023-11-19T07:40:56;100196.47;;;11.11;85.68
76201;BME280;64981;52.930;9.266;2023-11-19T07:43:22;100202.13;;;11.22;84.64
76201;BME280;64981;52.930;9.266;2023-11-19T07:45:47;100193.38;;;11.22;85.56
76201;BME280;64981;52.930;9.266;2023-11-19T07:48:13;100197.09;;;11.13;87.04
76201;BME280;64981;52.930;9.266;2023-11-19T07:50:39;100184.69;;;11.13;86.72
76201;BME280;64981;52.930;9.266;2023-11-19T07:53:07;100179.53;;;10.97;87.51
76201;BME280;64981;52.930;9.266;2023-11-19T07:55:34;100192.16;;;11.10;87.19
76201;BME280;64981;52.930;9.266;2023-11-19T07:58:00;100199.69;;;10.98;87.91
76201;BME280;64981;52.930;9.266;2023-11-19T08:00:25;100202.06;;;11.30;86.00
76201;BME280;64981;52.930;9.266;2023-11-19T08:02:52;100192.75;;;11.34;86.11
76201;BME280;64981;52.930;9.266;2023-11-19T08:05:17;100202.97;;;11.37;86.19
76201;BME280;64981;52.930;9.266;2023-11-19T08:07:43;100201.63;;;11.42;85.75
76201;BME280;64981;52.930;9.266;2023-11-19T08:10:08;100195.69;;;11.39;85.44
76201;BME280;64981;52.930;9.266;2023-11-19T08:12:36;100202.91;;;11.46;85.52
76201;BME280;64981;52.930;9.266;2023-11-19T08:15:03;100219.69;;;11.53;85.01
76201;BME280;64981;52.930;9.266;2023-11-19T08:17:30;100235.50;;;11.61;84.96
76201;BME280;64981;52.930;9.266;2023-11-19T08:19:55;100223.34;;;11.52;85.45
76201;BME280;64981;52.930;9.266;2023-11-19T08:22:21;100221.78;;;11.57;84.72
76201;BME280;64981;52.930;9.266;2023-11-19T08:24:48;100227.63;;;11.53;85.22
76201;BME280;64981;52.930;9.266;2023-11-19T08:27:13;100239.72;;;11.47;84.87
76201;BME280;64981;52.930;9.266;2023-11-19T08:29:39;100242.75;;;11.44;84.60
76201;BME280;64981;52.930;9.266;2023-11-19T08:32:06;100237.44;;;11.44;84.04
76201;BME280;64981;52.930;9.266;2023-11-19T08:34:32;100231.97;;;11.31;83.47
76201;BME280;64981;52.930;9.266;2023-11-19T08:36:57;100250.72;;;11.21;82.69
76201;BME280;64981;52.930;9.266;2023-11-19T08:39:23;100248.69;;;11.09;81.28
76201;BME280;64981;52.930;9.266;2023-11-19T08:41:49;100263.91;;;10.84;82.59
76201;BME280;64981;52.930;9.266;2023-11-19T08:44:16;100250.00;;;10.82;82.74
76201;BME280;64981;52.930;9.266;2023-11-19T08:46:49;100259.13;;;10.79;82.92
76201;BME280;64981;52.930;9.266;2023-11-19T08:49:15;100257.47;;;10.78;83.04
76201;BME280;64981;52.930;9.266;2023-11-19T08:51:40;100265.31;;;10.64;84.00
76201;BME280;64981;52.930;9.266;2023-11-19T08:54:07;100253.44;;;10.60;84.17
76201;BME280;64981;52.930;9.266;2023-11-19T08:56:32;100258.53;;;10.69;84.12
76201;BME280;64981;52.930;9.266;2023-11-19T08:59:00;100264.09;;;10.44;84.59
76201;BME280;64981;52.930;9.266;2023-11-19T09:01:25;100252.22;;;10.48;83.83
76201;BME280;64981;52.930;9.266;2023-11-19T09:03:51;100253.81;;;10.57;83.68
76201;BME280;64981;52.930;9.266;2023-11-19T09:06:17;100254.97;;;10.54;82.31
76201;BME280;64981;52.930;9.266;2023-11-19T09:08:43;100263.66;;;10.63;82.43
76201;BME280;64981;52.930;9.266;2023-11-19T09:11:09;100267.41;;;10.46;82.86
76201;BME280;64981;52.930;9.266;2023-11-19T09:13:35;100271.31;;;10.50;82.16
76201;BME280;64981;52.930;9.266;2023-11-19T09:16:01;100274.78;;;10.81;81.89
76201;BME280;64981;52.930;9.266;2023-11-19T09:18:29;100268.47;;;10.90;81.10
76201;BME280;64981;52.930;9.266;2023-11-19T09:20:55;100279.72;;;11.07;81.54
76201;BME280;64981;52.930;9.266;2023-11-19T09:23:20;100269.22;;;11.21;79.89
76201;BME280;64981;52.930;9.266;2023-11-19T09:25:46;100278.19;;;11.35;80.06
76201;BME280;64981;52.930;9.266;2023-11-19T09:28:12;100273.56;;;11.37;79.59
76201;BME280;64981;52.930;9.266;2023-11-19T09:30:39;100263.38;;;11.49;79.04
76201;BME280;64981;52.930;9.266;2023-11-19T09:33:05;100267.66;;;11.50;79.62
76201;BME280;64981;52.930;9.266;2023-11-19T09:35:31;100275.59;;;11.50;79.98
76201;BME280;64981;52.930;9.266;2023-11-19T09:37:56;100279.03;;;11.50;80.36
76201;BME280;64981;52.930;9.266;2023-11-19T09:40:22;100277.66;;;11.62;80.35
76201;BME280;64981;52.930;9.266;2023-11-19T09:42:48;100270.66;;;11.84;80.00
76201;BME280;64981;52.930;9.266;2023-11-19T09:45:15;100274.31;;;12.27;79.49
76201;BME280;64981;52.930;9.266;2023-11-19T09:47:44;100277.63;;;12.65;77.08
76201;BME280;64981;52.930;9.266;2023-11-19T09:50:19;100266.59;;;12.97;74.51
76201;BME280;64981;52.930;9.266;2023-11-19T09:52:46;100279.06;;;13.24;73.59
76201;BME280;64981;52.930;9.266;2023-11-19T09:55:12;100277.81;;;13.20;73.59
76201;BME280;64981;52.930;9.266;2023-11-19T09:57:39;100282.34;;;13.26;73.77
76201;BME280;64981;52.930;9.266;2023-11-19T10:00:07;100280.91;;;13.24;73.82
76201;BME280;64981;52.930;9.266;2023-11-19T10:02:33;100283.31;;;13.19;73.87
76201;BME280;64981;52.930;9.266;2023-11-19T10:05:04;100284.63;;;13.08;74.56
76201;BME280;64981;52.930;9.266;2023-11-19T10:07:31;100291.13;;;13.06;74.23
76201;BME280;64981;52.930;9.266;2023-11-19T10:10:00;100279.38;;;12.58;75.61
76201;BME280;64981;52.930;9.266;2023-11-19T10:12:26;100284.56;;;12.66;75.81
76201;BME280;64981;52.930;9.266;2023-11-19T10:14:56;100282.91;;;12.65;75.99
76201;BME280;64981;52.930;9.266;2023-11-19T10:17:27;100285.53;;;12.43;76.23
76201;BME280;64981;52.930;9.266;2023-11-19T10:19:55;100271.75;;;12.19;77.23
76201;BME280;64981;52.930;9.266;2023-11-19T10:22:23;100287.25;;;12.36;77.46
76201;BME280;64981;52.930;9.266;2023-11-19T10:24:49;100290.06;;;12.35;78.25
76201;BME280;64981;52.930;9.266;2023-11-19T10:27:15;100286.97;;;12.31;77.49
76201;BME280;64981;52.930;9.266;2023-11-19T10:29:45;100291.00;;;12.42;77.79
76201;BME280;64981;52.930;9.266;2023-11-19T10:32:12;100288.06;;;12.22;79.20
76201;BME280;64981;52.930;9.266;2023-11-19T10:34:37;100289.72;;;12.38;78.19
76201;BME280;64981;52.930;9.266;2023-11-19T10:37:05;100277.81;;;12.49;77.84
76201;BME280;64981;52.930;9.266;2023-11-19T10:42:16;100289.00;;;12.80;76.36
76201;BME280;64981;52.930;9.266;2023-11-19T10:44:42;100275.16;;;13.20;75.21
76201;BME280;64981;52.930;9.266;2023-11-19T10:47:08;100280.81;;;13.38;74.75
76201;BME280;64981;52.930;9.266;2023-11-19T10:49:36;100276.72;;;13.64;73.12
76201;BME280;64981;52.930;9.266;2023-11-19T10:52:02;100279.59;;;13.62;72.77
76201;BME280;64981;52.930;9.266;2023-11-19T10:54:30;100281.59;;;13.60;72.82
76201;BME280;64981;52.930;9.266;2023-11-19T10:56:59;100276.56;;;13.65;72.08
76201;BME280;64981;52.930;9.266;2023-11-19T10:59:30;100271.28;;;13.44;72.36
76201;BME280;64981;52.930;9.266;2023-11-19T11:02:00;100279.31;;;13.29;72.31
76201;BME280;64981;52.930;9.266;2023-11-19T11:04:31;100289.50;;;13.05;74.23
76201;BME280;64981;52.930;9.266;2023-11-19T11:07:00;100269.63;;;13.15;73.66
76201;BME280;64981;52.930;9.266;2023-11-19T11:09:27;100275.38;;;13.19;72.61
76201;BME280;64981;52.930;9.266;2023-11-19T11:11:54;100282.81;;;13.09;73.59
76201;BME280;64981;52.930;9.266;2023-11-19T11:14:22;100281.66;;;12.82;74.93
76201;BME280;64981;52.930;9.266;2023-11-19T11:16:49;100285.72;;;12.78;75.01
76201;BME280;64981;52.930;9.266;2023-11-19T11:19:16;100286.16;;;12.81;75.77
76201;BME280;64981;52.930;9.266;2023-11-19T11:21:49;100290.13;;;12.71;76.85
76201;BME280;64981;52.930;9.266;2023-11-19T11:24:34;100288.88;;;12.52;77.02
76201;BME280;64981;52.930;9.266;2023-11-19T11:27:25;100292.19;;;12.39;77.99
76201;BME280;64981;52.930;9.266;2023-11-19T11:30:10;100287.88;;;12.38;78.96
76201;BME280;64981;52.930;9.266;2023-11-19T11:32:53;100274.22;;;12.20;79.53
76201;BME280;64981;52.930;9.266;2023-11-19T11:35:33;100277.22;;;12.17;80.50
76201;BME280;64981;52.930;9.266;2023-11-19T11:38:07;100289.09;;;12.21;80.16
76201;BME280;64981;52.930;9.266;2023-11-19T11:40:34;100290.28;;;12.33;79.58
76201;BME280;64981;52.930;9.266;2023-11-19T11:43:00;100292.34;;;12.38;78.63
76201;BME280;64981;52.930;9.266;2023-11-19T11:45:36;100297.22;;;12.34;78.78
76201;BME280;64981;52.930;9.266;2023-11-19T11:48:11;100293.00;;;12.40;79.62
76201;BME280;64981;52.930;9.266;2023-11-19T11:50:49;100290.44;;;12.47;80.67
76201;BME280;64981;52.930;9.266;2023-11-19T11:53:17;100286.94;;;12.61;78.92
76201;BME280;64981;52.930;9.266;2023-11-19T11:55:53;100279.97;;;12.74;77.56
76201;BME280;64981;52.930;9.266;2023-11-19T11:58:27;100271.44;;;12.93;77.34
76201;BME280;64981;52.930;9.266;2023-11-19T12:00:53;100274.91;;;13.15;76.38
76201;BME280;64981;52.930;9.266;2023-11-19T12:03:21;100274.94;;;13.43;76.45
76201;BME280;64981;52.930;9.266;2023-11-19T12:05:48;100267.44;;;13.74;73.84
76201;BME280;64981;52.930;9.266;2023-11-19T12:08:15;100267.13;;;13.90;72.89
76201;BME280;64981;52.930;9.266;2023-11-19T12:10:49;100277.44;;;14.00;72.42
76201;BME280;64981;52.930;9.266;2023-11-19T12:13:16;100266.25;;;14.11;72.36
76201;BME280;64981;52.930;9.266;2023-11-19T12:18:39;100260.78;;;14.19;71.04
76201;BME280;64981;52.930;9.266;2023-11-19T12:21:06;100263.41;;;14.13;70.40
76201;BME280;64981;52.930;9.266;2023-11-19T12:23:32;100265.00;;;14.07;70.14
76201;BME280;64981;52.930;9.266;2023-11-19T12:25:58;100265.38;;;14.04;70.25
76201;BME280;64981;52.930;9.266;2023-11-19T12:28:25;100267.25;;;14.03;69.83
76201;BME280;64981;52.930;9.266;2023-11-19T12:30:53;100261.94;;;14.03;69.95
76201;BME280;64981;52.930;9.266;2023-11-19T12:33:19;100258.28;;;13.83;70.30
76201;BME280;64981;52.930;9.266;2023-11-19T12:35:48;100261.16;;;13.54;71.96
76201;BME280;64981;52.930;9.266;2023-11-19T12:38:22;100255.75;;;13.41;72.06
76201;BME280;64981;52.930;9.266;2023-11-19T12:41:07;100267.38;;;13.40;72.36
76201;BME280;64981;52.930;9.266;2023-11-19T12:43:33;100250.41;;;13.34;72.89
76201;BME280;64981;52.930;9.266;2023-11-19T12:46:01;100258.34;;;13.34;72.77
76201;BME280;64981;52.930;9.266;2023-11-19T12:48:27;100258.75;;;12.89;73.76
76201;BME280;64981;52.930;9.266;2023-11-19T12:50:55;100260.78;;;12.87;73.75
76201;BME280;64981;52.930;9.266;2023-11-19T12:53:22;100268.34;;;12.75;75.26
76201;BME280;64981;52.930;9.266;2023-11-19T12:55:48;100269.75;;;12.71;75.47
76201;BME280;64981;52.930;9.266;2023-11-19T12:58:32;100280.34;;;12.71;75.32